sensor_id;sensor_type;location;lat;lon;timestamp;pressure;altitude;pressure_sealevel;temperature;humidity
21504;BME280;10913;51.992;9.228;2022-07-23T00:01:41;100520.63;;;17.04;100.00
21504;BME280;10913;51.992;9.228;2022-07-23T00:04:09;100535.72;;;17.05;100.00
21504;BME280;10913;51.992;9.228;2022-07-23T00:06:37;100536.63;;;17.04;100.00
21504;BME280;10913;51.992;9.228;2022-07-23T00:09:06;100534.88;;;17.03;100.00
21504;BME280;10913;51.992;9.228;2022-07-23T00:11:31;100533.16;;;17.00;100.00
21504;BME280;10913;51.992;9.228;2022-07-23T00:14:06;100546.56;;;16.99;100.00
21504;BME280;10913;51.992;9.228;2022-07-23T00:16:34;100546.69;;;16.96;100.00
21504;BME280;10913;51.992;9.228;2022-07-23T00:19:00;100545.88;;;16.92;100.00
21504;BME280;10913;51.992;9.228;2022-07-23T00:21:27;100545.94;;;16.91;100.00
21504;BME280;10913;51.992;9.228;2022-07-23T00:23:53;100536.16;;;16.90;100.00
21504;BME280;10913;51.992;9.228;2022-07-23T00:26:18;100546.84;;;16.90;100.00
21504;BME280;10913;51.992;9.228;2022-07-23T00:28:43;100538.00;;;16.87;100.00
21504;BME280;10913;51.992;9.228;2022-07-23T00:31:09;100534.41;;;16.88;100.00
21504;BME280;10913;51.992;9.228;2022-07-23T00:33:34;100526.44;;;16.87;100.00
21504;BME280;10913;51.992;9.228;2022-07-23T00:36:00;100519.44;;;16.83;100.00
21504;BME280;10913;51.992;9.228;2022-07-23T00:38:25;100522.16;;;16.81;100.00
21504;BME280;10913;51.992;9.228;2022-07-23T00:40:50;100530.16;;;16.81;100.00
21504;BME280;10913;51.992;9.228;2022-07-23T00:43:16;100532.88;;;16.80;100.00
21504;BME280;10913;51.992;9.228;2022-07-23T00:45:41;100538.22;;;16.80;100.00
21504;BME280;10913;51.992;9.228;2022-07-23T00:48:07;100543.63;;;16.78;100.00
21504;BME280;10913;51.992;9.228;2022-07-23T00:50:32;100535.53;;;16.80;100.00
21504;BME280;10913;51.992;9.228;2022-07-23T00:52:58;100528.44;;;16.79;100.00
21504;BME280;10913;51.992;9.228;2022-07-23T00:55:24;100519.59;;;16.78;100.00
21504;BME280;10913;51.992;9.228;2022-07-23T00:57:49;100516.84;;;16.80;100.00
21504;BME280;10913;51.992;9.228;2022-07-23T01:00:15;100518.66;;;16.79;100.00
21504;BME280;10913;51.992;9.228;2022-07-23T01:02:41;100529.44;;;16.76;100.00
21504;BME280;10913;51.992;9.228;2022-07-23T01:05:08;100520.59;;;16.74;100.00
21504;BME280;10913;51.992;9.228;2022-07-23T01:07:33;100514.44;;;16.72;100.00
21504;BME280;10913;51.992;9.228;2022-07-23T01:10:00;100503.81;;;16.71;100.00
21504;BME280;10913;51.992;9.228;2022-07-23T01:12:25;100496.75;;;16.68;100.00
21504;BME280;10913;51.992;9.228;2022-07-23T01:14:58;100502.09;;;16.68;100.00
21504;BME280;10913;51.992;9.228;2022-07-23T01:17:24;100503.00;;;16.67;100.00
21504;BME280;10913;51.992;9.228;2022-07-23T01:19:50;100501.22;;;16.68;100.00
21504;BME280;10913;51.992;9.228;2022-07-23T01:22:18;100495.91;;;16.66;100.00
21504;BME280;10913;51.992;9.228;2022-07-23T01:24:44;100486.16;;;16.65;100.00
21504;BME280;10913;51.992;9.228;2022-07-23T01:27:09;100490.66;;;16.63;100.00
21504;BME280;10913;51.992;9.228;2022-07-23T01:29:34;100502.31;;;16.59;100.00
21504;BME280;10913;51.992;9.228;2022-07-23T01:32:00;100498.06;;;16.52;100.00
21504;BME280;10913;51.992;9.228;2022-07-23T01:34:25;100513.38;;;16.45;100.00
21504;BME280;10913;51.992;9.228;2022-07-23T01:36:50;100519.72;;;16.40;100.00
21504;BME280;10913;51.992;9.228;2022-07-23T01:39:16;100518.97;;;16.36;100.00
21504;BME280;10913;51.992;9.228;2022-07-23T01:41:41;100535.91;;;16.34;100.00
21504;BME280;10913;51.992;9.228;2022-07-23T01:44:07;100532.34;;;16.35;100.00
21504;BME280;10913;51.992;9.228;2022-07-23T01:46:32;100536.66;;;16.39;100.00
21504;BME280;10913;51.992;9.228;2022-07-23T01:48:57;100528.56;;;16.42;100.00
21504;BME280;10913;51.992;9.228;2022-07-23T01:51:23;100522.28;;;16.44;100.00
21504;BME280;10913;51.992;9.228;2022-07-23T01:53:48;100529.28;;;16.48;100.00
21504;BME280;10913;51.992;9.228;2022-07-23T01:56:14;100528.34;;;16.51;100.00
21504;BME280;10913;51.992;9.228;2022-07-23T01:58:40;100535.41;;;16.52;100.00
21504;BME280;10913;51.992;9.228;2022-07-23T02:01:06;100531.84;;;16.53;100.00
21504;BME280;10913;51.992;9.228;2022-07-23T02:03:31;100536.34;;;16.51;100.00
21504;BME280;10913;51.992;9.228;2022-07-23T02:05:56;100532.00;;;16.47;100.00
21504;BME280;10913;51.992;9.228;2022-07-23T02:08:22;100543.69;;;16.41;100.00
21504;BME280;10913;51.992;9.228;2022-07-23T02:10:47;100544.56;;;16.42;100.00
21504;BME280;10913;51.992;9.228;2022-07-23T02:13:14;100552.53;;;16.43;100.00
21504;BME280;10913;51.992;9.228;2022-07-23T02:15:39;100553.31;;;16.47;100.00
21504;BME280;10913;51.992;9.228;2022-07-23T02:18:05;100549.72;;;16.49;100.00
21504;BME280;10913;51.992;9.228;2022-07-23T02:20:30;100530.97;;;16.52;100.00
21504;BME280;10913;51.992;9.228;2022-07-23T02:22:55;100517.53;;;16.56;100.00
21504;BME280;10913;51.992;9.228;2022-07-23T02:25:21;100509.59;;;16.54;100.00
21504;BME280;10913;51.992;9.228;2022-07-23T02:27:46;100505.28;;;16.48;100.00
21504;BME280;10913;51.992;9.228;2022-07-23T02:30:12;100494.75;;;16.44;100.00
21504;BME280;10913;51.992;9.228;2022-07-23T02:32:37;100494.97;;;16.36;100.00
21504;BME280;10913;51.992;9.228;2022-07-23T02:35:05;100491.47;;;16.34;100.00
21504;BME280;10913;51.992;9.228;2022-07-23T02:37:31;100487.84;;;16.37;100.00
21504;BME280;10913;51.992;9.228;2022-07-23T02:39:56;100495.66;;;16.43;100.00
21504;BME280;10913;51.992;9.228;2022-07-23T02:42:22;100487.56;;;16.46;100.00
21504;BME280;10913;51.992;9.228;2022-07-23T02:44:49;100459.97;;;16.47;100.00
21504;BME280;10913;51.992;9.228;2022-07-23T02:47:14;100473.25;;;16.50;100.00
21504;BME280;10913;51.992;9.228;2022-07-23T02:49:40;100482.06;;;16.52;100.00
21504;BME280;10913;51.992;9.228;2022-07-23T02:52:05;100477.56;;;16.54;100.00
21504;BME280;10913;51.992;9.228;2022-07-23T02:54:31;100490.81;;;16.57;100.00
21504;BME280;10913;51.992;9.228;2022-07-23T02:56:56;100497.84;;;16.60;100.00
21504;BME280;10913;51.992;9.228;2022-07-23T02:59:21;100491.59;;;16.61;100.00
21504;BME280;10913;51.992;9.228;2022-07-23T03:01:47;100498.00;;;16.55;100.00
21504;BME280;10913;51.992;9.228;2022-07-23T03:04:12;100510.50;;;16.53;100.00
21504;BME280;10913;51.992;9.228;2022-07-23T03:06:38;100483.81;;;16.53;100.00
21504;BME280;10913;51.992;9.228;2022-07-23T03:09:04;100462.59;;;16.48;100.00
21504;BME280;10913;51.992;9.228;2022-07-23T03:11:30;100468.00;;;16.47;100.00
21504;BME280;10913;51.992;9.228;2022-07-23T03:13:55;100457.31;;;16.47;100.00
21504;BME280;10913;51.992;9.228;2022-07-23T03:16:21;100486.56;;;16.50;100.00
21504;BME280;10913;51.992;9.228;2022-07-23T03:18:46;100480.28;;;16.52;100.00
21504;BME280;10913;51.992;9.228;2022-07-23T03:21:12;100474.94;;;16.52;100.00
21504;BME280;10913;51.992;9.228;2022-07-23T03:23:37;100469.56;;;16.54;100.00
21504;BME280;10913;51.992;9.228;2022-07-23T03:26:03;100459.75;;;16.56;100.00
21504;BME280;10913;51.992;9.228;2022-07-23T03:28:28;100457.91;;;16.58;100.00
21504;BME280;10913;51.992;9.228;2022-07-23T03:30:54;100456.06;;;16.59;100.00
21504;BME280;10913;51.992;9.228;2022-07-23T03:33:20;100460.56;;;16.58;100.00
21504;BME280;10913;51.992;9.228;2022-07-23T03:35:47;100457.81;;;16.60;100.00
21504;BME280;10913;51.992;9.228;2022-07-23T03:38:12;100459.63;;;16.59;100.00
21504;BME280;10913;51.992;9.228;2022-07-23T03:40:38;100457.91;;;16.58;100.00
21504;BME280;10913;51.992;9.228;2022-07-23T03:43:03;100457.91;;;16.58;100.00
21504;BME280;10913;51.992;9.228;2022-07-23T03:45:29;100473.84;;;16.60;100.00
21504;BME280;10913;51.992;9.228;2022-07-23T03:47:55;100472.03;;;16.60;100.00
21504;BME280;10913;51.992;9.228;2022-07-23T03:50:20;100464.97;;;16.59;100.00
21504;BME280;10913;51.992;9.228;2022-07-23T03:52:46;100473.91;;;16.58;100.00
21504;BME280;10913;51.992;9.228;2022-07-23T03:55:12;100477.50;;;16.57;100.00
21504;BME280;10913;51.992;9.228;2022-07-23T03:57:37;100495.28;;;16.57;100.00
21504;BME280;10913;51.992;9.228;2022-07-23T04:00:04;100479.31;;;16.55;100.00
21504;BME280;10913;51.992;9.228;2022-07-23T04:02:31;100485.56;;;16.54;100.00
21504;BME280;10913;51.992;9.228;2022-07-23T04:04:56;100490.91;;;16.54;100.00
21504;BME280;10913;51.992;9.228;2022-07-23T04:07:22;100478.44;;;16.54;100.00
21504;BME280;10913;51.992;9.228;2022-07-23T04:09:47;100485.56;;;16.54;100.00
21504;BME280;10913;51.992;9.228;2022-07-23T04:12:13;100497.16;;;16.53;100.00
21504;BME280;10913;51.992;9.228;2022-07-23T04:14:39;100487.41;;;16.52;100.00
21504;BME280;10913;51.992;9.228;2022-07-23T04:17:04;100489.25;;;16.50;100.00
21504;BME280;10913;51.992;9.228;2022-07-23T04:19:29;100485.75;;;16.48;100.00
21504;BME280;10913;51.992;9.228;2022-07-23T04:21:56;100482.22;;;16.46;100.00
21504;BME280;10913;51.992;9.228;2022-07-23T04:24:21;100483.13;;;16.46;100.00
21504;BME280;10913;51.992;9.228;2022-07-23T04:26:46;100484.00;;;16.47;100.00
21504;BME280;10913;51.992;9.228;2022-07-23T04:29:12;100492.91;;;16.46;100.00
21504;BME280;10913;51.992;9.228;2022-07-23T04:31:37;100487.59;;;16.44;100.00
21504;BME280;10913;51.992;9.228;2022-07-23T04:34:03;100483.19;;;16.43;100.00
21504;BME280;10913;51.992;9.228;2022-07-23T04:36:28;100484.09;;;16.42;100.00
21504;BME280;10913;51.992;9.228;2022-07-23T04:38:54;100481.47;;;16.41;100.00
21504;BME280;10913;51.992;9.228;2022-07-23T04:41:19;100489.53;;;16.39;100.00
21504;BME280;10913;51.992;9.228;2022-07-23T04:43:45;100493.97;;;16.39;100.00
21504;BME280;10913;51.992;9.228;2022-07-23T04:46:10;100487.88;;;16.35;100.00
21504;BME280;10913;51.992;9.228;2022-07-23T04:48:36;100490.63;;;16.32;100.00
21504;BME280;10913;51.992;9.228;2022-07-23T04:51:01;100493.25;;;16.34;100.00
21504;BME280;10913;51.992;9.228;2022-07-23T04:53:27;100485.22;;;16.35;100.00
21504;BME280;10913;51.992;9.228;2022-07-23T04:55:53;100494.81;;;16.41;100.00
21504;BME280;10913;51.992;9.228;2022-07-23T04:58:18;100500.09;;;16.42;100.00
21504;BME280;10913;51.992;9.228;2022-07-23T05:00:43;100498.25;;;16.46;100.00
21504;BME280;10913;51.992;9.228;2022-07-23T05:03:09;100498.16;;;16.49;100.00
21504;BME280;10913;51.992;9.228;2022-07-23T05:05:34;100499.06;;;16.48;100.00
21504;BME280;10913;51.992;9.228;2022-07-23T05:08:01;100503.50;;;16.49;100.00
21504;BME280;10913;51.992;9.228;2022-07-23T05:10:26;100505.25;;;16.50;100.00
21504;BME280;10913;51.992;9.228;2022-07-23T05:12:51;100501.59;;;16.54;100.00
21504;BME280;10913;51.992;9.228;2022-07-23T05:15:17;100505.84;;;16.60;100.00
21504;BME280;10913;51.992;9.228;2022-07-23T05:17:42;100499.53;;;16.64;100.00
21504;BME280;10913;51.992;9.228;2022-07-23T05:20:08;100494.97;;;16.69;100.00
21504;BME280;10913;51.992;9.228;2022-07-23T05:22:33;100502.06;;;16.70;100.00
21504;BME280;10913;51.992;9.228;2022-07-23T05:24:59;100504.69;;;16.71;100.00
21504;BME280;10913;51.992;9.228;2022-07-23T05:27:24;100498.31;;;16.77;100.00
21504;BME280;10913;51.992;9.228;2022-07-23T05:29:50;100504.31;;;16.83;100.00
21504;BME280;10913;51.992;9.228;2022-07-23T05:32:15;100499.69;;;16.90;100.00
21504;BME280;10913;51.992;9.228;2022-07-23T05:34:40;100497.72;;;16.97;100.00
21504;BME280;10913;51.992;9.228;2022-07-23T05:37:06;100494.84;;;17.03;100.00
21504;BME280;10913;51.992;9.228;2022-07-23T05:39:31;100494.66;;;17.09;100.00
21504;BME280;10913;51.992;9.228;2022-07-23T05:41:56;100496.28;;;17.14;100.00
21504;BME280;10913;51.992;9.228;2022-07-23T05:44:22;100505.09;;;17.18;100.00
21504;BME280;10913;51.992;9.228;2022-07-23T05:46:47;100493.34;;;17.22;100.00
21504;BME280;10913;51.992;9.228;2022-07-23T05:49:13;100498.53;;;17.28;100.00
21504;BME280;10913;51.992;9.228;2022-07-23T05:51:38;100504.66;;;17.32;100.00
21504;BME280;10913;51.992;9.228;2022-07-23T05:54:03;100509.94;;;17.33;100.00
21504;BME280;10913;51.992;9.228;2022-07-23T05:56:29;100511.69;;;17.34;100.00
21504;BME280;10913;51.992;9.228;2022-07-23T05:58:54;100516.94;;;17.37;100.00
21504;BME280;10913;51.992;9.228;2022-07-23T06:01:19;100512.25;;;17.44;100.00
21504;BME280;10913;51.992;9.228;2022-07-23T06:03:45;100513.13;;;17.44;100.00
21504;BME280;10913;51.992;9.228;2022-07-23T06:06:10;100512.06;;;17.50;100.00
21504;BME280;10913;51.992;9.228;2022-07-23T06:08:35;100512.78;;;17.56;100.00
21504;BME280;10913;51.992;9.228;2022-07-23T06:11:01;100503.63;;;17.64;100.00
21504;BME280;10913;51.992;9.228;2022-07-23T06:13:26;100506.13;;;17.70;100.00
21504;BME280;10913;51.992;9.228;2022-07-23T06:15:52;100503.13;;;17.79;100.00
21504;BME280;10913;51.992;9.228;2022-07-23T06:18:17;100510.03;;;17.86;100.00
21504;BME280;10913;51.992;9.228;2022-07-23T06:20:43;100517.81;;;17.94;100.00
21504;BME280;10913;51.992;9.228;2022-07-23T06:23:09;100513.94;;;18.02;100.00
21504;BME280;10913;51.992;9.228;2022-07-23T06:25:34;100516.41;;;18.08;100.00
21504;BME280;10913;51.992;9.228;2022-07-23T06:28:00;100514.38;;;18.16;100.00
21504;BME280;10913;51.992;9.228;2022-07-23T06:30:25;100510.53;;;18.23;100.00
21504;BME280;10913;51.992;9.228;2022-07-23T06:32:51;100511.06;;;18.35;100.00
21504;BME280;10913;51.992;9.228;2022-07-23T06:35:16;100515.13;;;18.45;100.00
21504;BME280;10913;51.992;9.228;2022-07-23T06:37:42;100508.53;;;18.55;100.00
21504;BME280;10913;51.992;9.228;2022-07-23T06:40:08;100518.81;;;18.67;99.40
21504;BME280;10913;51.992;9.228;2022-07-23T06:42:33;100515.69;;;18.79;98.17
21504;BME280;10913;51.992;9.228;2022-07-23T06:45:05;100528.47;;;18.96;97.34
21504;BME280;10913;51.992;9.228;2022-07-23T06:47:31;100532.19;;;19.15;96.85
21504;BME280;10913;51.992;9.228;2022-07-23T06:49:57;100526.19;;;19.32;95.77
21504;BME280;10913;51.992;9.228;2022-07-23T06:52:23;100530.19;;;19.44;94.89
21504;BME280;10913;51.992;9.228;2022-07-23T06:54:48;100526.50;;;19.46;93.49
21504;BME280;10913;51.992;9.228;2022-07-23T06:57:14;100538.03;;;19.50;92.93
21504;BME280;10913;51.992;9.228;2022-07-23T06:59:40;100541.66;;;19.47;92.78
21504;BME280;10913;51.992;9.228;2022-07-23T07:02:06;100549.25;;;19.36;93.13
21504;BME280;10913;51.992;9.228;2022-07-23T07:04:31;100552.28;;;19.27;93.85
21504;BME280;10913;51.992;9.228;2022-07-23T07:06:57;100552.50;;;19.21;94.46
21504;BME280;10913;51.992;9.228;2022-07-23T07:09:23;100546.47;;;19.16;94.75
21504;BME280;10913;51.992;9.228;2022-07-23T07:11:48;100543.03;;;19.12;94.43
21504;BME280;10913;51.992;9.228;2022-07-23T07:14:13;100547.44;;;19.13;94.52
21504;BME280;10913;51.992;9.228;2022-07-23T07:16:39;100551.69;;;19.19;94.14
21504;BME280;10913;51.992;9.228;2022-07-23T07:19:04;100538.75;;;19.30;93.72
21504;BME280;10913;51.992;9.228;2022-07-23T07:21:29;100548.88;;;19.45;93.36
21504;BME280;10913;51.992;9.228;2022-07-23T07:23:55;100554.78;;;19.55;91.51
21504;BME280;10913;51.992;9.228;2022-07-23T07:26:20;100558.78;;;19.67;90.15
21504;BME280;10913;51.992;9.228;2022-07-23T07:28:45;100561.13;;;19.76;89.59
21504;BME280;10913;51.992;9.228;2022-07-23T07:31:11;100554.53;;;19.83;89.47
21504;BME280;10913;51.992;9.228;2022-07-23T07:33:36;100559.56;;;19.92;88.67
21504;BME280;10913;51.992;9.228;2022-07-23T07:36:02;100562.66;;;20.03;88.30
21504;BME280;10913;51.992;9.228;2022-07-23T07:38:28;100557.72;;;20.14;87.59
21504;BME280;10913;51.992;9.228;2022-07-23T07:40:53;100553.50;;;20.29;87.60
21504;BME280;10913;51.992;9.228;2022-07-23T07:43:18;100566.31;;;20.44;87.78
21504;BME280;10913;51.992;9.228;2022-07-23T07:45:44;100564.75;;;20.59;86.34
21504;BME280;10913;51.992;9.228;2022-07-23T07:48:09;100557.94;;;20.72;86.21
21504;BME280;10913;51.992;9.228;2022-07-23T07:50:35;100569.84;;;20.85;85.49
21504;BME280;10913;51.992;9.228;2022-07-23T07:53:00;100579.25;;;20.95;84.22
21504;BME280;10913;51.992;9.228;2022-07-23T07:55:25;100575.34;;;21.03;83.51
21504;BME280;10913;51.992;9.228;2022-07-23T07:57:52;100573.72;;;20.98;83.99
21504;BME280;10913;51.992;9.228;2022-07-23T08:00:18;100580.47;;;20.88;83.88
21504;BME280;10913;51.992;9.228;2022-07-23T08:02:48;100585.72;;;20.91;84.00
21504;BME280;10913;51.992;9.228;2022-07-23T08:05:14;100581.66;;;21.02;83.99
21504;BME280;10913;51.992;9.228;2022-07-23T08:07:43;100573.59;;;21.22;83.14
21504;BME280;10913;51.992;9.228;2022-07-23T08:10:09;100580.16;;;21.54;82.77
21504;BME280;10913;51.992;9.228;2022-07-23T08:12:50;100577.31;;;21.76;80.86
21504;BME280;10913;51.992;9.228;2022-07-23T08:15:17;100580.50;;;21.84;80.12
21504;BME280;10913;51.992;9.228;2022-07-23T08:17:44;100580.22;;;21.90;80.37
21504;BME280;10913;51.992;9.228;2022-07-23T08:20:11;100587.03;;;21.97;79.32
21504;BME280;10913;51.992;9.228;2022-07-23T08:22:44;100594.25;;;21.96;79.88
21504;BME280;10913;51.992;9.228;2022-07-23T08:25:10;100591.47;;;21.98;80.38
21504;BME280;10913;51.992;9.228;2022-07-23T08:27:36;100593.50;;;21.93;80.32
21504;BME280;10913;51.992;9.228;2022-07-23T08:30:01;100592.28;;;22.00;80.48
21504;BME280;10913;51.992;9.228;2022-07-23T08:32:26;100601.09;;;22.21;79.20
21504;BME280;10913;51.992;9.228;2022-07-23T08:34:52;100592.97;;;22.40;78.21
21504;BME280;10913;51.992;9.228;2022-07-23T08:37:17;100594.56;;;22.61;77.10
21504;BME280;10913;51.992;9.228;2022-07-23T08:39:42;100588.09;;;22.65;76.22
21504;BME280;10913;51.992;9.228;2022-07-23T08:42:08;100586.59;;;22.77;76.20
21504;BME280;10913;51.992;9.228;2022-07-23T08:44:35;100591.13;;;22.93;74.50
21504;BME280;10913;51.992;9.228;2022-07-23T08:47:01;100592.91;;;23.10;74.79
21504;BME280;10913;51.992;9.228;2022-07-23T08:49:28;100591.81;;;23.30;73.78
21504;BME280;10913;51.992;9.228;2022-07-23T08:51:54;100587.66;;;23.40;72.80
21504;BME280;10913;51.992;9.228;2022-07-23T08:54:21;100588.38;;;23.44;72.50
21504;BME280;10913;51.992;9.228;2022-07-23T08:56:48;100590.53;;;23.37;72.53
21504;BME280;10913;51.992;9.228;2022-07-23T08:59:14;100592.16;;;23.24;72.55
21504;BME280;10913;51.992;9.228;2022-07-23T09:01:39;100592.31;;;23.21;72.89
21504;BME280;10913;51.992;9.228;2022-07-23T09:04:05;100601.19;;;23.23;73.17
21504;BME280;10913;51.992;9.228;2022-07-23T09:06:30;100604.53;;;23.28;73.10
21504;BME280;10913;51.992;9.228;2022-07-23T09:08:56;100602.44;;;23.33;72.66
21504;BME280;10913;51.992;9.228;2022-07-23T09:11:21;100604.13;;;23.35;73.39
21504;BME280;10913;51.992;9.228;2022-07-23T09:13:54;100602.63;;;23.46;72.04
21504;BME280;10913;51.992;9.228;2022-07-23T09:16:20;100601.72;;;23.62;71.39
21504;BME280;10913;51.992;9.228;2022-07-23T09:19:02;100600.19;;;23.74;69.35
21504;BME280;10913;51.992;9.228;2022-07-23T09:21:32;100602.59;;;23.79;70.00
21504;BME280;10913;51.992;9.228;2022-07-23T09:24:01;100607.25;;;23.77;69.98
21504;BME280;10913;51.992;9.228;2022-07-23T09:26:32;100610.44;;;23.67;70.51
21504;BME280;10913;51.992;9.228;2022-07-23T09:29:02;100607.50;;;23.56;70.89
21504;BME280;10913;51.992;9.228;2022-07-23T09:31:34;100614.28;;;23.46;71.09
21504;BME280;10913;51.992;9.228;2022-07-23T09:36:36;100601.06;;;23.42;69.94
21504;BME280;10913;51.992;9.228;2022-07-23T09:39:02;100602.34;;;23.67;69.55
21504;BME280;10913;51.992;9.228;2022-07-23T09:41:34;100603.59;;;23.93;68.27
21504;BME280;10913;51.992;9.228;2022-07-23T09:44:11;100606.34;;;24.23;67.82
21504;BME280;10913;51.992;9.228;2022-07-23T09:46:36;100598.47;;;24.50;67.82
21504;BME280;10913;51.992;9.228;2022-07-23T09:49:11;100591.50;;;24.76;67.14
21504;BME280;10913;51.992;9.228;2022-07-23T09:59:36;100600.41;;;24.92;67.56
21504;BME280;10913;51.992;9.228;2022-07-23T10:02:02;100589.09;;;24.86;63.85
21504;BME280;10913;51.992;9.228;2022-07-23T10:04:30;100604.34;;;24.72;65.01
21504;BME280;10913;51.992;9.228;2022-07-23T10:07:00;100603.81;;;24.66;65.86
21504;BME280;10913;51.992;9.228;2022-07-23T10:09:34;100604.97;;;24.62;66.65
21504;BME280;10913;51.992;9.228;2022-07-23T10:12:01;100608.63;;;24.61;66.27
21504;BME280;10913;51.992;9.228;2022-07-23T10:14:38;100609.59;;;24.60;66.70
21504;BME280;10913;51.992;9.228;2022-07-23T10:17:04;100611.16;;;24.64;67.08
21504;BME280;10913;51.992;9.228;2022-07-23T10:19:31;100609.03;;;24.69;66.59
21504;BME280;10913;51.992;9.228;2022-07-23T10:22:42;100613.06;;;24.62;66.70
21504;BME280;10913;51.992;9.228;2022-07-23T10:28:10;100617.28;;;24.52;66.52
21504;BME280;10913;51.992;9.228;2022-07-23T10:33:32;100597.56;;;24.35;66.55
21504;BME280;10913;51.992;9.228;2022-07-23T10:36:11;100600.91;;;24.55;67.07
21504;BME280;10913;51.992;9.228;2022-07-23T10:38:54;100596.44;;;24.84;65.67
21504;BME280;10913;51.992;9.228;2022-07-23T10:41:32;100606.09;;;25.18;65.68
21504;BME280;10913;51.992;9.228;2022-07-23T10:46:36;100609.38;;;25.51;63.55
21504;BME280;10913;51.992;9.228;2022-07-23T10:49:25;100606.38;;;25.56;63.96
21504;BME280;10913;51.992;9.228;2022-07-23T10:54:45;100599.59;;;25.20;64.65
21504;BME280;10913;51.992;9.228;2022-07-23T10:57:13;100596.50;;;25.26;65.05
21504;BME280;10913;51.992;9.228;2022-07-23T11:02:45;100602.00;;;25.11;64.92
21504;BME280;10913;51.992;9.228;2022-07-23T11:05:14;100599.78;;;25.03;64.82
21504;BME280;10913;51.992;9.228;2022-07-23T11:10:37;100603.31;;;24.89;65.44
21504;BME280;10913;51.992;9.228;2022-07-23T11:13:45;100598.13;;;25.00;65.11
21504;BME280;10913;51.992;9.228;2022-07-23T11:37:04;100589.31;;;25.96;62.66
21504;BME280;10913;51.992;9.228;2022-07-23T11:39:31;100588.13;;;26.00;61.98
21504;BME280;10913;51.992;9.228;2022-07-23T11:41:58;100586.56;;;26.11;63.08
21504;BME280;10913;51.992;9.228;2022-07-23T11:44:28;100588.41;;;26.10;62.13
21504;BME280;10913;51.992;9.228;2022-07-23T11:46:58;100588.97;;;26.15;62.85
21504;BME280;10913;51.992;9.228;2022-07-23T11:49:25;100582.69;;;26.15;62.69
21504;BME280;10913;51.992;9.228;2022-07-23T11:52:13;100590.03;;;26.13;62.92
21504;BME280;10913;51.992;9.228;2022-07-23T11:57:13;100587.25;;;26.00;62.91
21504;BME280;10913;51.992;9.228;2022-07-23T11:59:39;100592.91;;;25.83;62.92
21504;BME280;10913;51.992;9.228;2022-07-23T12:02:06;100581.88;;;25.86;63.66
21504;BME280;10913;51.992;9.228;2022-07-23T12:04:46;100583.44;;;25.90;63.14
21504;BME280;10913;51.992;9.228;2022-07-23T12:07:40;100579.34;;;25.97;62.85
21504;BME280;10913;51.992;9.228;2022-07-23T12:12:42;100584.78;;;25.97;62.73
21504;BME280;10913;51.992;9.228;2022-07-23T12:15:09;100587.78;;;25.92;63.12
21504;BME280;10913;51.992;9.228;2022-07-23T12:17:37;100579.75;;;25.91;62.95
21504;BME280;10913;51.992;9.228;2022-07-23T12:20:06;100584.59;;;25.86;63.10
21504;BME280;10913;51.992;9.228;2022-07-23T12:22:37;100584.00;;;25.95;62.67
21504;BME280;10913;51.992;9.228;2022-07-23T12:25:17;100583.56;;;26.01;62.77
21504;BME280;10913;51.992;9.228;2022-07-23T12:27:44;100583.81;;;25.98;62.55
21504;BME280;10913;51.992;9.228;2022-07-23T12:30:26;100588.19;;;26.13;62.21
21504;BME280;10913;51.992;9.228;2022-07-23T12:32:56;100591.09;;;26.10;62.21
21504;BME280;10913;51.992;9.228;2022-07-23T12:35:23;100588.59;;;26.07;61.96
21504;BME280;10913;51.992;9.228;2022-07-23T12:37:50;100590.63;;;26.03;62.13
21504;BME280;10913;51.992;9.228;2022-07-23T12:42:47;100588.34;;;25.97;62.40
21504;BME280;10913;51.992;9.228;2022-07-23T12:45:13;100587.69;;;25.94;61.75
21504;BME280;10913;51.992;9.228;2022-07-23T12:47:52;100583.81;;;25.98;62.02
21504;BME280;10913;51.992;9.228;2022-07-23T12:53:23;100580.00;;;26.27;61.77
21504;BME280;10913;51.992;9.228;2022-07-23T12:55:50;100589.28;;;26.37;61.62
21504;BME280;10913;51.992;9.228;2022-07-23T12:58:18;100583.88;;;26.37;61.96
21504;BME280;10913;51.992;9.228;2022-07-23T13:05:55;100589.88;;;26.55;61.40
21504;BME280;10913;51.992;9.228;2022-07-23T13:08:21;100588.91;;;26.56;61.25
21504;BME280;10913;51.992;9.228;2022-07-23T13:10:47;100596.00;;;26.45;61.37
21504;BME280;10913;51.992;9.228;2022-07-23T13:13:14;100594.22;;;26.58;60.32
21504;BME280;10913;51.992;9.228;2022-07-23T13:15:40;100595.19;;;26.57;59.59
21504;BME280;10913;51.992;9.228;2022-07-23T13:18:06;100589.34;;;26.63;60.66
21504;BME280;10913;51.992;9.228;2022-07-23T13:20:31;100596.66;;;26.75;61.04
21504;BME280;10913;51.992;9.228;2022-07-23T13:22:57;100592.41;;;26.84;60.99
21504;BME280;10913;51.992;9.228;2022-07-23T13:25:23;100590.25;;;26.89;60.45
21504;BME280;10913;51.992;9.228;2022-07-23T13:27:48;100586.56;;;26.90;60.65
21504;BME280;10913;51.992;9.228;2022-07-23T13:30:14;100586.13;;;26.83;60.35
21504;BME280;10913;51.992;9.228;2022-07-23T13:32:40;100583.41;;;26.83;59.88
21504;BME280;10913;51.992;9.228;2022-07-23T13:35:06;100580.91;;;26.80;60.31
21504;BME280;10913;51.992;9.228;2022-07-23T13:37:31;100582.84;;;26.78;59.69
21504;BME280;10913;51.992;9.228;2022-07-23T13:39:57;100579.63;;;26.86;59.60
21504;BME280;10913;51.992;9.228;2022-07-23T13:42:22;100586.56;;;26.90;60.04
21504;BME280;10913;51.992;9.228;2022-07-23T13:44:47;100579.81;;;26.83;58.90
21504;BME280;10913;51.992;9.228;2022-07-23T13:47:13;100593.28;;;26.84;58.89
21504;BME280;10913;51.992;9.228;2022-07-23T13:49:38;100582.00;;;26.90;59.41